sensor_id;sensor_type;location;lat;lon;timestamp;P1;durP1;ratioP1;P2;durP2;ratioP2
58615;SDS011;44385;51.992;4.206;2023-03-01T00:01:00;13.48;;;11.65;;
58615;SDS011;44385;51.992;4.206;2023-03-01T00:03:28;14.57;;;11.55;;
58615;SDS011;44385;51.992;4.206;2023-03-01T00:05:54;16.30;;;11.68;;
58615;SDS011;44385;51.992;4.206;2023-03-01T00:08:21;14.48;;;11.75;;
58615;SDS011;44385;51.992;4.206;2023-03-01T00:10:47;14.63;;;11.88;;
58615;SDS011;44385;51.992;4.206;2023-03-01T00:13:14;14.10;;;11.90;;
58615;SDS011;44385;51.992;4.206;2023-03-01T00:15:40;17.27;;;13.18;;
58615;SDS011;44385;51.992;4.206;2023-03-01T00:18:07;15.57;;;12.68;;
58615;SDS011;44385;51.992;4.206;2023-03-01T00:20:35;13.52;;;11.98;;
58615;SDS011;44385;51.992;4.206;2023-03-01T00:23:01;13.05;;;11.40;;
58615;SDS011;44385;51.992;4.206;2023-03-01T00:25:28;15.05;;;12.20;;
58615;SDS011;44385;51.992;4.206;2023-03-01T00:27:54;17.23;;;12.52;;
58615;SDS011;44385;51.992;4.206;2023-03-01T00:30:21;14.88;;;12.15;;
58615;SDS011;44385;51.992;4.206;2023-03-01T00:32:47;15.50;;;12.43;;
58615;SDS011;44385;51.992;4.206;2023-03-01T00:35:14;15.38;;;12.18;;
58615;SDS011;44385;51.992;4.206;2023-03-01T00:37:41;17.88;;;12.35;;
58615;SDS011;44385;51.992;4.206;2023-03-01T00:40:08;14.70;;;11.73;;
58615;SDS011;44385;51.992;4.206;2023-03-01T00:42:35;15.93;;;13.05;;
58615;SDS011;44385;51.992;4.206;2023-03-01T00:45:01;16.88;;;13.40;;
58615;SDS011;44385;51.992;4.206;2023-03-01T00:47:29;19.15;;;12.18;;
58615;SDS011;44385;51.992;4.206;2023-03-01T00:49:55;13.50;;;12.07;;
58615;SDS011;44385;51.992;4.206;2023-03-01T00:52:21;15.05;;;12.30;;
58615;SDS011;44385;51.992;4.206;2023-03-01T00:54:51;14.93;;;12.90;;
58615;SDS011;44385;51.992;4.206;2023-03-01T00:57:17;15.02;;;12.75;;
58615;SDS011;44385;51.992;4.206;2023-03-01T00:59:44;15.25;;;13.30;;
58615;SDS011;44385;51.992;4.206;2023-03-01T01:02:10;15.82;;;12.88;;
58615;SDS011;44385;51.992;4.206;2023-03-01T01:04:36;18.83;;;13.98;;
58615;SDS011;44385;51.992;4.206;2023-03-01T01:07:03;19.67;;;14.25;;
58615;SDS011;44385;51.992;4.206;2023-03-01T01:09:30;18.65;;;13.95;;
58615;SDS011;44385;51.992;4.206;2023-03-01T01:11:58;17.85;;;14.10;;
58615;SDS011;44385;51.992;4.206;2023-03-01T01:14:24;18.45;;;13.40;;
58615;SDS011;44385;51.992;4.206;2023-03-01T01:16:51;17.83;;;14.35;;
58615;SDS011;44385;51.992;4.206;2023-03-01T01:19:17;18.00;;;14.43;;
58615;SDS011;44385;51.992;4.206;2023-03-01T01:21:43;20.50;;;14.70;;
58615;SDS011;44385;51.992;4.206;2023-03-01T01:24:10;18.75;;;13.88;;
58615;SDS011;44385;51.992;4.206;2023-03-01T01:26:36;17.48;;;14.10;;
58615;SDS011;44385;51.992;4.206;2023-03-01T01:29:04;17.55;;;14.80;;
58615;SDS011;44385;51.992;4.206;2023-03-01T01:31:31;17.08;;;13.13;;
58615;SDS011;44385;51.992;4.206;2023-03-01T01:33:58;20.90;;;14.02;;
58615;SDS011;44385;51.992;4.206;2023-03-01T01:36:25;16.55;;;13.95;;
58615;SDS011;44385;51.992;4.206;2023-03-01T01:38:51;22.85;;;15.43;;
58615;SDS011;44385;51.992;4.206;2023-03-01T01:41:17;21.52;;;17.25;;
58615;SDS011;44385;51.992;4.206;2023-03-01T01:43:44;21.38;;;16.85;;
58615;SDS011;44385;51.992;4.206;2023-03-01T01:46:18;22.23;;;16.35;;
58615;SDS011;44385;51.992;4.206;2023-03-01T01:48:48;25.65;;;18.55;;
58615;SDS011;44385;51.992;4.206;2023-03-01T01:51:17;25.15;;;19.58;;
58615;SDS011;44385;51.992;4.206;2023-03-01T01:53:44;29.58;;;19.83;;
58615;SDS011;44385;51.992;4.206;2023-03-01T01:56:13;27.58;;;21.15;;
58615;SDS011;44385;51.992;4.206;2023-03-01T01:58:41;23.00;;;18.90;;
58615;SDS011;44385;51.992;4.206;2023-03-01T02:01:08;28.90;;;20.08;;
58615;SDS011;44385;51.992;4.206;2023-03-01T02:03:37;26.95;;;18.67;;
58615;SDS011;44385;51.992;4.206;2023-03-01T02:06:10;26.60;;;18.90;;
58615;SDS011;44385;51.992;4.206;2023-03-01T02:08:38;25.52;;;19.15;;
58615;SDS011;44385;51.992;4.206;2023-03-01T02:11:05;30.05;;;20.95;;
58615;SDS011;44385;51.992;4.206;2023-03-01T02:13:31;28.55;;;20.38;;
58615;SDS011;44385;51.992;4.206;2023-03-01T02:15:58;26.55;;;19.20;;
58615;SDS011;44385;51.992;4.206;2023-03-01T02:18:25;26.90;;;21.85;;
58615;SDS011;44385;51.992;4.206;2023-03-01T02:20:57;27.92;;;19.45;;
58615;SDS011;44385;51.992;4.206;2023-03-01T02:23:25;30.02;;;19.73;;
58615;SDS011;44385;51.992;4.206;2023-03-01T02:25:54;28.88;;;20.80;;
58615;SDS011;44385;51.992;4.206;2023-03-01T02:28:27;26.65;;;19.02;;
58615;SDS011;44385;51.992;4.206;2023-03-01T02:30:55;27.75;;;20.65;;
58615;SDS011;44385;51.992;4.206;2023-03-01T02:33:39;28.90;;;21.83;;
58615;SDS011;44385;51.992;4.206;2023-03-01T02:36:06;29.13;;;21.77;;
58615;SDS011;44385;51.992;4.206;2023-03-01T02:38:33;29.23;;;21.85;;
58615;SDS011;44385;51.992;4.206;2023-03-01T02:41:00;33.20;;;22.35;;
58615;SDS011;44385;51.992;4.206;2023-03-01T02:43:31;32.08;;;23.02;;
58615;SDS011;44385;51.992;4.206;2023-03-01T02:45:58;26.45;;;20.50;;
58615;SDS011;44385;51.992;4.206;2023-03-01T02:48:24;30.95;;;22.90;;
58615;SDS011;44385;51.992;4.206;2023-03-01T02:50:52;32.42;;;22.13;;
58615;SDS011;44385;51.992;4.206;2023-03-01T02:53:27;33.03;;;23.05;;
58615;SDS011;44385;51.992;4.206;2023-03-01T02:55:55;31.52;;;22.60;;
58615;SDS011;44385;51.992;4.206;2023-03-01T02:58:22;31.63;;;22.10;;
58615;SDS011;44385;51.992;4.206;2023-03-01T03:00:50;28.75;;;21.83;;
58615;SDS011;44385;51.992;4.206;2023-03-01T03:03:17;29.13;;;21.38;;
58615;SDS011;44385;51.992;4.206;2023-03-01T03:05:43;30.83;;;21.52;;
58615;SDS011;44385;51.992;4.206;2023-03-01T03:08:09;26.27;;;21.40;;
58615;SDS011;44385;51.992;4.206;2023-03-01T03:10:38;31.52;;;21.58;;
58615;SDS011;44385;51.992;4.206;2023-03-01T03:13:05;28.33;;;21.90;;
58615;SDS011;44385;51.992;4.206;2023-03-01T03:15:32;29.48;;;22.90;;
58615;SDS011;44385;51.992;4.206;2023-03-01T03:18:04;28.83;;;22.33;;
58615;SDS011;44385;51.992;4.206;2023-03-01T03:20:31;31.20;;;22.17;;
58615;SDS011;44385;51.992;4.206;2023-03-01T03:22:57;29.38;;;22.42;;
58615;SDS011;44385;51.992;4.206;2023-03-01T03:25:25;31.15;;;22.35;;
58615;SDS011;44385;51.992;4.206;2023-03-01T03:27:52;31.80;;;21.98;;
58615;SDS011;44385;51.992;4.206;2023-03-01T03:30:22;28.42;;;21.77;;
58615;SDS011;44385;51.992;4.206;2023-03-01T03:32:48;28.63;;;21.35;;
58615;SDS011;44385;51.992;4.206;2023-03-01T03:35:20;31.80;;;22.95;;
58615;SDS011;44385;51.992;4.206;2023-03-01T03:37:49;31.95;;;24.38;;
58615;SDS011;44385;51.992;4.206;2023-03-01T03:40:29;32.70;;;24.85;;
58615;SDS011;44385;51.992;4.206;2023-03-01T03:42:56;30.92;;;23.52;;
58615;SDS011;44385;51.992;4.206;2023-03-01T03:45:22;32.67;;;25.30;;
58615;SDS011;44385;51.992;4.206;2023-03-01T03:47:48;35.72;;;24.48;;
58615;SDS011;44385;51.992;4.206;2023-03-01T03:50:16;34.20;;;23.45;;
58615;SDS011;44385;51.992;4.206;2023-03-01T03:52:44;32.97;;;24.42;;
58615;SDS011;44385;51.992;4.206;2023-03-01T03:55:11;34.55;;;25.30;;
58615;SDS011;44385;51.992;4.206;2023-03-01T03:57:38;32.72;;;24.58;;
58615;SDS011;44385;51.992;4.206;2023-03-01T04:00:07;33.80;;;25.13;;
58615;SDS011;44385;51.992;4.206;2023-03-01T04:02:37;32.50;;;24.25;;
58615;SDS011;44385;51.992;4.206;2023-03-01T04:05:04;34.95;;;25.23;;
58615;SDS011;44385;51.992;4.206;2023-03-01T04:07:30;30.88;;;23.60;;
58615;SDS011;44385;51.992;4.206;2023-03-01T04:09:58;33.60;;;23.95;;
58615;SDS011;44385;51.992;4.206;2023-03-01T04:12:25;31.73;;;24.52;;
58615;SDS011;44385;51.992;4.206;2023-03-01T04:14:51;35.67;;;25.85;;
58615;SDS011;44385;51.992;4.206;2023-03-01T04:17:18;30.08;;;23.48;;
58615;SDS011;44385;51.992;4.206;2023-03-01T04:19:44;37.22;;;26.95;;
58615;SDS011;44385;51.992;4.206;2023-03-01T04:22:13;31.05;;;25.23;;
58615;SDS011;44385;51.992;4.206;2023-03-01T04:24:43;33.17;;;24.70;;
58615;SDS011;44385;51.992;4.206;2023-03-01T04:27:11;30.98;;;23.15;;
58615;SDS011;44385;51.992;4.206;2023-03-01T04:29:37;33.95;;;24.90;;
58615;SDS011;44385;51.992;4.206;2023-03-01T04:32:04;32.13;;;24.05;;
58615;SDS011;44385;51.992;4.206;2023-03-01T04:34:30;34.70;;;25.08;;
58615;SDS011;44385;51.992;4.206;2023-03-01T04:36:57;34.58;;;25.95;;
58615;SDS011;44385;51.992;4.206;2023-03-01T04:39:23;34.67;;;24.83;;
58615;SDS011;44385;51.992;4.206;2023-03-01T04:41:49;33.20;;;23.70;;
58615;SDS011;44385;51.992;4.206;2023-03-01T04:44:17;34.17;;;24.67;;
58615;SDS011;44385;51.992;4.206;2023-03-01T04:46:44;37.50;;;28.60;;
58615;SDS011;44385;51.992;4.206;2023-03-01T04:49:10;35.17;;;25.42;;
58615;SDS011;44385;51.992;4.206;2023-03-01T04:51:37;36.53;;;26.75;;
58615;SDS011;44385;51.992;4.206;2023-03-01T04:54:04;34.03;;;25.63;;
58615;SDS011;44385;51.992;4.206;2023-03-01T04:56:33;34.90;;;27.10;;
58615;SDS011;44385;51.992;4.206;2023-03-01T04:59:00;34.58;;;25.65;;
58615;SDS011;44385;51.992;4.206;2023-03-01T05:01:32;33.65;;;24.40;;
58615;SDS011;44385;51.992;4.206;2023-03-01T05:03:58;35.50;;;26.13;;
58615;SDS011;44385;51.992;4.206;2023-03-01T05:06:30;35.67;;;25.17;;
58615;SDS011;44385;51.992;4.206;2023-03-01T05:08:57;35.67;;;26.55;;
58615;SDS011;44385;51.992;4.206;2023-03-01T05:11:24;38.83;;;25.83;;
58615;SDS011;44385;51.992;4.206;2023-03-01T05:13:50;39.88;;;27.52;;
58615;SDS011;44385;51.992;4.206;2023-03-01T05:16:19;37.53;;;26.60;;
58615;SDS011;44385;51.992;4.206;2023-03-01T05:18:48;37.13;;;28.05;;
58615;SDS011;44385;51.992;4.206;2023-03-01T05:21:16;38.97;;;27.75;;
58615;SDS011;44385;51.992;4.206;2023-03-01T05:23:42;37.53;;;27.70;;
58615;SDS011;44385;51.992;4.206;2023-03-01T05:26:09;40.53;;;27.73;;
58615;SDS011;44385;51.992;4.206;2023-03-01T05:28:37;43.00;;;29.70;;
58615;SDS011;44385;51.992;4.206;2023-03-01T05:31:04;40.53;;;28.30;;
58615;SDS011;44385;51.992;4.206;2023-03-01T05:36:02;41.13;;;28.92;;
58615;SDS011;44385;51.992;4.206;2023-03-01T05:38:28;40.03;;;29.10;;
58615;SDS011;44385;51.992;4.206;2023-03-01T05:40:55;39.45;;;28.80;;
58615;SDS011;44385;51.992;4.206;2023-03-01T05:43:21;40.45;;;30.02;;
58615;SDS011;44385;51.992;4.206;2023-03-01T05:45:48;47.08;;;32.88;;
58615;SDS011;44385;51.992;4.206;2023-03-01T05:48:14;48.92;;;33.05;;
58615;SDS011;44385;51.992;4.206;2023-03-01T05:50:41;45.58;;;33.55;;
58615;SDS011;44385;51.992;4.206;2023-03-01T05:53:10;46.10;;;33.15;;
58615;SDS011;44385;51.992;4.206;2023-03-01T05:55:37;41.60;;;30.63;;
58615;SDS011;44385;51.992;4.206;2023-03-01T05:58:04;46.17;;;32.15;;
58615;SDS011;44385;51.992;4.206;2023-03-01T06:00:31;43.88;;;29.77;;
58615;SDS011;44385;51.992;4.206;2023-03-01T06:02:58;45.45;;;32.03;;
58615;SDS011;44385;51.992;4.206;2023-03-01T06:05:25;42.63;;;30.90;;
58615;SDS011;44385;51.992;4.206;2023-03-01T06:07:51;46.85;;;32.33;;
58615;SDS011;44385;51.992;4.206;2023-03-01T06:10:20;49.10;;;32.55;;
58615;SDS011;44385;51.992;4.206;2023-03-01T06:12:47;45.78;;;32.47;;
58615;SDS011;44385;51.992;4.206;2023-03-01T06:15:15;45.92;;;32.13;;
58615;SDS011;44385;51.992;4.206;2023-03-01T06:17:42;42.97;;;30.20;;
58615;SDS011;44385;51.992;4.206;2023-03-01T06:20:09;42.63;;;30.35;;
58615;SDS011;44385;51.992;4.206;2023-03-01T06:22:36;42.55;;;30.75;;
58615;SDS011;44385;51.992;4.206;2023-03-01T06:25:02;44.88;;;30.88;;
58615;SDS011;44385;51.992;4.206;2023-03-01T06:27:30;41.70;;;30.42;;
58615;SDS011;44385;51.992;4.206;2023-03-01T06:29:56;41.65;;;29.27;;
58615;SDS011;44385;51.992;4.206;2023-03-01T06:32:23;43.88;;;28.95;;
58615;SDS011;44385;51.992;4.206;2023-03-01T06:34:49;42.85;;;29.83;;
58615;SDS011;44385;51.992;4.206;2023-03-01T06:37:16;42.65;;;29.55;;
58615;SDS011;44385;51.992;4.206;2023-03-01T06:39:42;39.15;;;28.45;;
58615;SDS011;44385;51.992;4.206;2023-03-01T06:42:08;37.72;;;27.40;;
58615;SDS011;44385;51.992;4.206;2023-03-01T06:44:37;37.42;;;27.33;;
58615;SDS011;44385;51.992;4.206;2023-03-01T06:47:03;38.08;;;27.83;;
58615;SDS011;44385;51.992;4.206;2023-03-01T06:49:30;40.05;;;28.00;;
58615;SDS011;44385;51.992;4.206;2023-03-01T06:51:56;40.70;;;26.90;;
58615;SDS011;44385;51.992;4.206;2023-03-01T06:54:23;37.63;;;26.02;;
58615;SDS011;44385;51.992;4.206;2023-03-01T06:56:49;39.50;;;26.50;;
58615;SDS011;44385;51.992;4.206;2023-03-01T06:59:16;38.00;;;25.40;;
58615;SDS011;44385;51.992;4.206;2023-03-01T07:01:44;41.95;;;28.17;;
58615;SDS011;44385;51.992;4.206;2023-03-01T07:04:11;39.53;;;29.35;;
58615;SDS011;44385;51.992;4.206;2023-03-01T07:06:38;37.75;;;27.08;;
58615;SDS011;44385;51.992;4.206;2023-03-01T07:09:04;38.88;;;26.38;;
58615;SDS011;44385;51.992;4.206;2023-03-01T07:11:31;41.88;;;30.13;;
58615;SDS011;44385;51.992;4.206;2023-03-01T07:13:57;40.30;;;28.65;;
58615;SDS011;44385;51.992;4.206;2023-03-01T07:16:25;40.53;;;29.20;;
58615;SDS011;44385;51.992;4.206;2023-03-01T07:18:52;41.15;;;28.25;;
58615;SDS011;44385;51.992;4.206;2023-03-01T07:21:19;40.58;;;28.70;;
58615;SDS011;44385;51.992;4.206;2023-03-01T07:23:47;44.70;;;30.40;;
58615;SDS011;44385;51.992;4.206;2023-03-01T07:26:13;39.53;;;27.83;;
58615;SDS011;44385;51.992;4.206;2023-03-01T07:28:39;41.33;;;28.38;;
58615;SDS011;44385;51.992;4.206;2023-03-01T07:31:06;41.35;;;26.55;;
58615;SDS011;44385;51.992;4.206;2023-03-01T07:33:32;35.83;;;27.33;;
58615;SDS011;44385;51.992;4.206;2023-03-01T07:36:00;38.67;;;27.13;;
58615;SDS011;44385;51.992;4.206;2023-03-01T07:38:28;38.83;;;26.95;;
58615;SDS011;44385;51.992;4.206;2023-03-01T07:40:57;38.10;;;26.83;;
58615;SDS011;44385;51.992;4.206;2023-03-01T07:43:24;35.85;;;25.17;;
58615;SDS011;44385;51.992;4.206;2023-03-01T07:45:50;38.65;;;26.77;;
58615;SDS011;44385;51.992;4.206;2023-03-01T07:48:16;39.67;;;27.45;;
58615;SDS011;44385;51.992;4.206;2023-03-01T07:50:43;37.53;;;25.95;;
58615;SDS011;44385;51.992;4.206;2023-03-01T07:53:11;37.72;;;24.63;;
58615;SDS011;44385;51.992;4.206;2023-03-01T07:55:37;32.20;;;23.10;;
58615;SDS011;44385;51.992;4.206;2023-03-01T07:58:03;34.15;;;23.42;;
58615;SDS011;44385;51.992;4.206;2023-03-01T08:00:30;34.13;;;23.05;;
58615;SDS011;44385;51.992;4.206;2023-03-01T08:02:58;32.78;;;22.85;;
58615;SDS011;44385;51.992;4.206;2023-03-01T08:05:24;30.67;;;21.65;;
58615;SDS011;44385;51.992;4.206;2023-03-01T08:07:51;31.17;;;20.65;;
58615;SDS011;44385;51.992;4.206;2023-03-01T08:10:18;29.48;;;21.10;;
58615;SDS011;44385;51.992;4.206;2023-03-01T08:12:45;24.77;;;17.45;;
58615;SDS011;44385;51.992;4.206;2023-03-01T08:15:12;22.60;;;16.63;;
58615;SDS011;44385;51.992;4.206;2023-03-01T08:17:38;21.88;;;15.32;;
58615;SDS011;44385;51.992;4.206;2023-03-01T08:20:05;22.88;;;14.65;;
58615;SDS011;44385;51.992;4.206;2023-03-01T08:22:32;17.90;;;13.75;;
58615;SDS011;44385;51.992;4.206;2023-03-01T08:24:58;19.30;;;13.88;;
58615;SDS011;44385;51.992;4.206;2023-03-01T08:27:26;23.55;;;15.77;;
58615;SDS011;44385;51.992;4.206;2023-03-01T08:29:52;18.25;;;14.23;;
58615;SDS011;44385;51.992;4.206;2023-03-01T08:32:18;22.63;;;15.20;;
58615;SDS011;44385;51.992;4.206;2023-03-01T08:34:46;22.48;;;15.25;;
58615;SDS011;44385;51.992;4.206;2023-03-01T08:37:15;20.15;;;15.57;;
58615;SDS011;44385;51.992;4.206;2023-03-01T08:39:41;23.30;;;14.27;;
58615;SDS011;44385;51.992;4.206;2023-03-01T08:42:08;21.45;;;15.63;;
58615;SDS011;44385;51.992;4.206;2023-03-01T08:44:35;23.25;;;15.30;;
58615;SDS011;44385;51.992;4.206;2023-03-01T08:47:02;24.92;;;17.23;;
58615;SDS011;44385;51.992;4.206;2023-03-01T08:49:30;24.25;;;17.20;;
58615;SDS011;44385;51.992;4.206;2023-03-01T08:51:57;28.00;;;19.38;;
58615;SDS011;44385;51.992;4.206;2023-03-01T08:54:23;26.88;;;19.08;;
58615;SDS011;44385;51.992;4.206;2023-03-01T08:56:50;27.85;;;19.20;;
58615;SDS011;44385;51.992;4.206;2023-03-01T08:59:16;24.60;;;17.85;;
58615;SDS011;44385;51.992;4.206;2023-03-01T09:01:44;26.48;;;18.02;;
58615;SDS011;44385;51.992;4.206;2023-03-01T09:04:11;31.08;;;20.08;;
58615;SDS011;44385;51.992;4.206;2023-03-01T09:06:37;27.65;;;19.80;;
58615;SDS011;44385;51.992;4.206;2023-03-01T09:09:04;25.98;;;18.65;;
58615;SDS011;44385;51.992;4.206;2023-03-01T09:11:31;21.00;;;17.45;;
58615;SDS011;44385;51.992;4.206;2023-03-01T09:13:58;20.98;;;16.73;;
58615;SDS011;44385;51.992;4.206;2023-03-01T09:16:24;25.42;;;16.88;;
58615;SDS011;44385;51.992;4.206;2023-03-01T09:18:53;17.92;;;15.25;;
58615;SDS011;44385;51.992;4.206;2023-03-01T09:21:20;19.80;;;14.98;;
58615;SDS011;44385;51.992;4.206;2023-03-01T09:23:48;17.65;;;13.32;;
58615;SDS011;44385;51.992;4.206;2023-03-01T09:26:15;15.18;;;12.45;;
58615;SDS011;44385;51.992;4.206;2023-03-01T09:28:44;11.75;;;10.55;;
58615;SDS011;44385;51.992;4.206;2023-03-01T09:31:10;15.75;;;11.57;;
58615;SDS011;44385;51.992;4.206;2023-03-01T09:33:38;11.10;;;9.30;;
58615;SDS011;44385;51.992;4.206;2023-03-01T09:36:07;13.13;;;10.60;;
58615;SDS011;44385;51.992;4.206;2023-03-01T09:38:33;11.52;;;10.35;;
58615;SDS011;44385;51.992;4.206;2023-03-01T09:41:00;12.10;;;10.32;;
58615;SDS011;44385;51.992;4.206;2023-03-01T09:43:29;10.95;;;9.68;;
58615;SDS011;44385;51.992;4.206;2023-03-01T09:45:58;11.02;;;9.48;;
58615;SDS011;44385;51.992;4.206;2023-03-01T09:48:26;10.82;;;9.55;;
58615;SDS011;44385;51.992;4.206;2023-03-01T09:50:53;10.23;;;9.20;;
58615;SDS011;44385;51.992;4.206;2023-03-01T09:53:22;9.60;;;8.65;;
58615;SDS011;44385;51.992;4.206;2023-03-01T09:55:50;11.48;;;8.80;;
58615;SDS011;44385;51.992;4.206;2023-03-01T09:58:29;10.68;;;9.43;;
58615;SDS011;44385;51.992;4.206;2023-03-01T10:00:58;11.07;;;9.88;;
58615;SDS011;44385;51.992;4.206;2023-03-01T10:03:26;9.90;;;8.52;;
58615;SDS011;44385;51.992;4.206;2023-03-01T10:05:56;9.75;;;8.75;;
58615;SDS011;44385;51.992;4.206;2023-03-01T10:08:29;10.68;;;9.68;;
58615;SDS011;44385;51.992;4.206;2023-03-01T10:10:58;9.88;;;8.88;;
58615;SDS011;44385;51.992;4.206;2023-03-01T10:13:26;10.52;;;9.63;;
58615;SDS011;44385;51.992;4.206;2023-03-01T10:15:54;9.55;;;8.45;;
58615;SDS011;44385;51.992;4.206;2023-03-01T10:18:23;10.43;;;8.25;;
58615;SDS011;44385;51.992;4.206;2023-03-01T10:20:52;8.00;;;7.32;;
58615;SDS011;44385;51.992;4.206;2023-03-01T10:23:19;7.47;;;6.78;;
58615;SDS011;44385;51.992;4.206;2023-03-01T10:25:50;8.38;;;6.63;;
58615;SDS011;44385;51.992;4.206;2023-03-01T10:28:24;8.88;;;6.40;;
58615;SDS011;44385;51.992;4.206;2023-03-01T10:30:51;5.70;;;5.18;;
58615;SDS011;44385;51.992;4.206;2023-03-01T10:33:19;6.40;;;5.82;;
58615;SDS011;44385;51.992;4.206;2023-03-01T10:35:47;6.20;;;5.60;;
58615;SDS011;44385;51.992;4.206;2023-03-01T10:38:14;6.75;;;5.63;;
58615;SDS011;44385;51.992;4.206;2023-03-01T10:40:52;7.47;;;5.20;;
58615;SDS011;44385;51.992;4.206;2023-03-01T10:43:19;6.32;;;5.72;;
58615;SDS011;44385;51.992;4.206;2023-03-01T10:45:47;7.53;;;5.20;;
58615;SDS011;44385;51.992;4.206;2023-03-01T10:48:14;6.57;;;5.72;;
58615;SDS011;44385;51.992;4.206;2023-03-01T10:50:42;6.82;;;6.22;;
58615;SDS011;44385;51.992;4.206;2023-03-01T10:53:25;6.65;;;6.05;;
58615;SDS011;44385;51.992;4.206;2023-03-01T10:55:59;9.30;;;7.25;;
58615;SDS011;44385;51.992;4.206;2023-03-01T10:58:27;8.30;;;7.50;;
58615;SDS011;44385;51.992;4.206;2023-03-01T11:00:54;8.77;;;7.85;;
58615;SDS011;44385;51.992;4.206;2023-03-01T11:03:22;9.45;;;7.40;;
58615;SDS011;44385;51.992;4.206;2023-03-01T11:05:50;10.07;;;7.88;;
58615;SDS011;44385;51.992;4.206;2023-03-01T11:08:26;8.90;;;8.10;;
58615;SDS011;44385;51.992;4.206;2023-03-01T11:11:02;9.93;;;8.93;;
58615;SDS011;44385;51.992;4.206;2023-03-01T11:13:29;8.85;;;8.07;;
58615;SDS011;44385;51.992;4.206;2023-03-01T11:15:59;8.88;;;7.97;;
58615;SDS011;44385;51.992;4.206;2023-03-01T11:18:26;9.20;;;8.25;;
58615;SDS011;44385;51.992;4.206;2023-03-01T11:20:55;8.70;;;7.88;;
58615;SDS011;44385;51.992;4.206;2023-03-01T11:23:21;11.00;;;8.80;;
58615;SDS011;44385;51.992;4.206;2023-03-01T11:25:51;9.25;;;8.20;;
58615;SDS011;44385;51.992;4.206;2023-03-01T11:28:22;8.05;;;7.32;;
58615;SDS011;44385;51.992;4.206;2023-03-01T11:30:50;8.38;;;7.68;;
58615;SDS011;44385;51.992;4.206;2023-03-01T11:33:19;7.88;;;7.07;;
58615;SDS011;44385;51.992;4.206;2023-03-01T11:35:50;8.93;;;8.10;;
58615;SDS011;44385;51.992;4.206;2023-03-01T11:38:22;9.65;;;8.43;;
58615;SDS011;44385;51.992;4.206;2023-03-01T11:40:50;8.40;;;7.50;;
58615;SDS011;44385;51.992;4.206;2023-03-01T11:43:20;8.32;;;7.55;;
58615;SDS011;44385;51.992;4.206;2023-03-01T11:45:54;9.02;;;8.15;;
58615;SDS011;44385;51.992;4.206;2023-03-01T11:48:38;8.68;;;7.75;;
58615;SDS011;44385;51.992;4.206;2023-03-01T11:51:05;8.30;;;7.50;;
58615;SDS011;44385;51.992;4.206;2023-03-01T11:53:41;9.50;;;8.55;;
58615;SDS011;44385;51.992;4.206;2023-03-01T11:56:13;11.57;;;8.48;;
58615;SDS011;44385;51.992;4.206;2023-03-01T11:58:53;8.98;;;8.07;;
58615;SDS011;44385;51.992;4.206;2023-03-01T12:01:28;9.65;;;8.65;;
58615;SDS011;44385;51.992;4.206;2023-03-01T12:06:50;9.45;;;8.63;;
58615;SDS011;44385;51.992;4.206;2023-03-01T12:09:35;8.77;;;8.07;;
58615;SDS011;44385;51.992;4.206;2023-03-01T12:12:08;10.48;;;9.15;;
58615;SDS011;44385;51.992;4.206;2023-03-01T12:14:41;9.43;;;8.57;;
58615;SDS011;44385;51.992;4.206;2023-03-01T12:17:19;10.27;;;9.23;;
58615;SDS011;44385;51.992;4.206;2023-03-01T12:19:53;10.63;;;9.52;;
58615;SDS011;44385;51.992;4.206;2023-03-01T12:22:27;10.02;;;9.13;;
58615;SDS011;44385;51.992;4.206;2023-03-01T12:27:46;10.15;;;9.32;;
58615;SDS011;44385;51.992;4.206;2023-03-01T12:30:17;10.65;;;9.65;;
58615;SDS011;44385;51.992;4.206;2023-03-01T12:32:51;10.23;;;8.98;;
58615;SDS011;44385;51.992;4.206;2023-03-01T12:35:25;10.73;;;9.73;;
58615;SDS011;44385;51.992;4.206;2023-03-01T12:37:56;11.05;;;9.85;;
58615;SDS011;44385;51.992;4.206;2023-03-01T12:40:30;12.02;;;10.23;;
58615;SDS011;44385;51.992;4.206;2023-03-01T12:43:03;10.80;;;9.70;;
58615;SDS011;44385;51.992;4.206;2023-03-01T12:45:34;11.32;;;10.23;;
58615;SDS011;44385;51.992;4.206;2023-03-01T12:48:11;10.07;;;9.18;;
58615;SDS011;44385;51.992;4.206;2023-03-01T12:50:42;11.15;;;10.15;;
58615;SDS011;44385;51.992;4.206;2023-03-01T12:53:15;12.52;;;10.77;;
58615;SDS011;44385;51.992;4.206;2023-03-01T12:55:46;11.13;;;10.07;;
58615;SDS011;44385;51.992;4.206;2023-03-01T12:58:16;10.70;;;9.57;;
58615;SDS011;44385;51.992;4.206;2023-03-01T13:00:52;11.82;;;10.60;;
58615;SDS011;44385;51.992;4.206;2023-03-01T13:03:24;11.65;;;10.43;;
58615;SDS011;44385;51.992;4.206;2023-03-01T13:05:56;12.77;;;11.48;;
58615;SDS011;44385;51.992;4.206;2023-03-01T13:08:27;12.02;;;10.82;;
58615;SDS011;44385;51.992;4.206;2023-03-01T13:13:22;11.98;;;9.90;;
58615;SDS011;44385;51.992;4.206;2023-03-01T13:15:49;10.55;;;9.35;;
58615;SDS011;44385;51.992;4.206;2023-03-01T13:18:33;9.63;;;8.73;;
58615;SDS011;44385;51.992;4.206;2023-03-01T13:21:00;12.95;;;9.63;;
58615;SDS011;44385;51.992;4.206;2023-03-01T13:23:29;12.60;;;10.52;;
58615;SDS011;44385;51.992;4.206;2023-03-01T13:26:07;11.13;;;10.02;;
58615;SDS011;44385;51.992;4.206;2023-03-01T13:34:01;12.95;;;10.60;;
58615;SDS011;44385;51.992;4.206;2023-03-01T13:39:30;12.48;;;11.20;;
58615;SDS011;44385;51.992;4.206;2023-03-01T13:41:58;12.90;;;11.60;;
58615;SDS011;44385;51.992;4.206;2023-03-01T13:44:30;12.93;;;11.68;;
58615;SDS011;44385;51.992;4.206;2023-03-01T13:46:57;13.27;;;11.88;;
58615;SDS011;44385;51.992;4.206;2023-03-01T13:49:27;14.50;;;12.30;;
58615;SDS011;44385;51.992;4.206;2023-03-01T13:51:53;14.32;;;12.73;;
58615;SDS011;44385;51.992;4.206;2023-03-01T13:54:25;14.73;;;12.40;;
58615;SDS011;44385;51.992;4.206;2023-03-01T13:56:52;12.70;;;11.20;;
58615;SDS011;44385;51.992;4.206;2023-03-01T13:59:20;13.13;;;10.98;;
58615;SDS011;44385;51.992;4.206;2023-03-01T14:01:54;12.27;;;10.13;;
58615;SDS011;44385;51.992;4.206;2023-03-01T14:04:22;11.75;;;10.55;;
58615;SDS011;44385;51.992;4.206;2023-03-01T14:06:50;11.57;;;9.95;;
58615;SDS011;44385;51.992;4.206;2023-03-01T14:09:18;12.85;;;9.80;;
58615;SDS011;44385;51.992;4.206;2023-03-01T14:14:47;11.45;;;9.35;;
58615;SDS011;44385;51.992;4.206;2023-03-01T14:20:16;11.00;;;9.85;;
58615;SDS011;44385;51.992;4.206;2023-03-01T14:22:45;11.57;;;9.30;;
58615;SDS011;44385;51.992;4.206;2023-03-01T14:28:03;8.90;;;8.00;;
58615;SDS011;44385;51.992;4.206;2023-03-01T14:30:31;9.77;;;8.05;;
58615;SDS011;44385;51.992;4.206;2023-03-01T14:32:59;10.97;;;8.13;;
58615;SDS011;44385;51.992;4.206;2023-03-01T14:35:27;9.20;;;8.15;;
58615;SDS011;44385;51.992;4.206;2023-03-01T14:37:55;9.48;;;7.25;;
58615;SDS011;44385;51.992;4.206;2023-03-01T14:40:22;9.68;;;8.02;;
58615;SDS011;44385;51.992;4.206;2023-03-01T14:42:49;8.23;;;7.40;;
58615;SDS011;44385;51.992;4.206;2023-03-01T14:45:16;10.70;;;7.10;;
58615;SDS011;44385;51.992;4.206;2023-03-01T14:47:43;10.30;;;7.75;;
58615;SDS011;44385;51.992;4.206;2023-03-01T14:50:14;8.52;;;7.38;;
58615;SDS011;44385;51.992;4.206;2023-03-01T14:52:44;10.05;;;7.60;;
58615;SDS011;44385;51.992;4.206;2023-03-01T14:55:15;11.23;;;7.88;;
58615;SDS011;44385;51.992;4.206;2023-03-01T14:57:42;9.00;;;7.22;;
58615;SDS011;44385;51.992;4.206;2023-03-01T15:00:14;8.00;;;6.60;;